sensor_id;sensor_type;location;lat;lon;timestamp;P1;durP1;ratioP1;P2;durP2;ratioP2
64854;SDS011;51321;50.428;8.378;2023-05-07T08:35:56;5.53;;;4.80;;
64854;SDS011;51321;50.428;8.378;2023-05-07T08:38:37;6.30;;;3.65;;
64854;SDS011;51321;50.428;8.378;2023-05-07T08:41:20;4.28;;;3.80;;
64854;SDS011;51321;50.428;8.378;2023-05-07T08:44:01;4.30;;;3.90;;
64854;SDS011;51321;50.428;8.378;2023-05-07T08:46:47;5.30;;;4.13;;
64854;SDS011;51321;50.428;8.378;2023-05-07T08:49:33;5.85;;;3.70;;
64854;SDS011;51321;50.428;8.378;2023-05-07T08:52:20;4.85;;;3.78;;
64854;SDS011;51321;50.428;8.378;2023-05-07T08:55:02;6.22;;;4.47;;
64854;SDS011;51321;50.428;8.378;2023-05-07T08:57:44;4.70;;;3.65;;
64854;SDS011;51321;50.428;8.378;2023-05-07T09:00:27;5.28;;;4.63;;
64854;SDS011;51321;50.428;8.378;2023-05-07T09:03:10;4.97;;;4.25;;
64854;SDS011;51321;50.428;8.378;2023-05-07T09:05:54;5.70;;;3.75;;
64854;SDS011;51321;50.428;8.378;2023-05-07T09:08:39;4.68;;;4.22;;
64854;SDS011;51321;50.428;8.378;2023-05-07T09:11:21;4.65;;;3.90;;
64854;SDS011;51321;50.428;8.378;2023-05-07T09:14:04;4.05;;;3.65;;
64854;SDS011;51321;50.428;8.378;2023-05-07T09:16:51;4.63;;;4.22;;
64854;SDS011;51321;50.428;8.378;2023-05-07T09:19:32;4.50;;;3.70;;
64854;SDS011;51321;50.428;8.378;2023-05-07T09:22:16;4.50;;;4.10;;
64854;SDS011;51321;50.428;8.378;2023-05-07T09:25:11;4.30;;;3.90;;
64854;SDS011;51321;50.428;8.378;2023-05-07T09:27:52;6.47;;;4.72;;
64854;SDS011;51321;50.428;8.378;2023-05-07T09:30:33;5.05;;;4.40;;
64854;SDS011;51321;50.428;8.378;2023-05-07T09:33:16;4.25;;;3.85;;
64854;SDS011;51321;50.428;8.378;2023-05-07T09:36:02;6.05;;;4.68;;
64854;SDS011;51321;50.428;8.378;2023-05-07T09:38:45;5.50;;;4.90;;
64854;SDS011;51321;50.428;8.378;2023-05-07T09:41:28;9.90;;;4.93;;
64854;SDS011;51321;50.428;8.378;2023-05-07T09:44:23;5.03;;;4.53;;
64854;SDS011;51321;50.428;8.378;2023-05-07T09:47:06;7.93;;;4.68;;
64854;SDS011;51321;50.428;8.378;2023-05-07T09:49:55;4.80;;;4.20;;
64854;SDS011;51321;50.428;8.378;2023-05-07T09:52:38;5.45;;;4.55;;
64854;SDS011;51321;50.428;8.378;2023-05-07T09:55:21;4.90;;;4.45;;
64854;SDS011;51321;50.428;8.378;2023-05-07T09:58:05;6.30;;;4.50;;
64854;SDS011;51321;50.428;8.378;2023-05-07T10:00:47;5.13;;;3.90;;
64854;SDS011;51321;50.428;8.378;2023-05-07T10:03:30;4.75;;;4.22;;
64854;SDS011;51321;50.428;8.378;2023-05-07T10:06:17;4.93;;;4.43;;
64854;SDS011;51321;50.428;8.378;2023-05-07T10:08:59;5.80;;;5.30;;
64854;SDS011;51321;50.428;8.378;2023-05-07T10:11:41;6.35;;;5.45;;
64854;SDS011;51321;50.428;8.378;2023-05-07T10:14:24;6.00;;;4.78;;
64854;SDS011;51321;50.428;8.378;2023-05-07T10:17:07;7.78;;;5.93;;
64854;SDS011;51321;50.428;8.378;2023-05-07T10:19:51;7.35;;;6.22;;
64854;SDS011;51321;50.428;8.378;2023-05-07T10:22:37;9.93;;;7.35;;
64854;SDS011;51321;50.428;8.378;2023-05-07T10:25:23;9.38;;;8.20;;
64854;SDS011;51321;50.428;8.378;2023-05-07T10:28:17;24.75;;;8.23;;
64854;SDS011;51321;50.428;8.378;2023-05-07T10:31:08;6.80;;;6.10;;
64854;SDS011;51321;50.428;8.378;2023-05-07T10:33:59;11.43;;;7.03;;
64854;SDS011;51321;50.428;8.378;2023-05-07T10:36:42;7.13;;;6.45;;
64854;SDS011;51321;50.428;8.378;2023-05-07T10:39:25;6.53;;;5.80;;
64854;SDS011;51321;50.428;8.378;2023-05-07T10:42:07;5.45;;;4.80;;
64854;SDS011;51321;50.428;8.378;2023-05-07T10:44:49;6.18;;;5.57;;
64854;SDS011;51321;50.428;8.378;2023-05-07T10:47:42;5.97;;;5.38;;
64854;SDS011;51321;50.428;8.378;2023-05-07T10:50:46;6.32;;;5.03;;
64854;SDS011;51321;50.428;8.378;2023-05-07T10:53:27;5.57;;;4.75;;
64854;SDS011;51321;50.428;8.378;2023-05-07T10:56:25;7.68;;;6.63;;
64854;SDS011;51321;50.428;8.378;2023-05-07T10:59:32;6.30;;;5.65;;
64854;SDS011;51321;50.428;8.378;2023-05-07T11:06:11;5.80;;;4.75;;
64854;SDS011;51321;50.428;8.378;2023-05-07T11:09:11;6.60;;;5.40;;
64854;SDS011;51321;50.428;8.378;2023-05-07T11:12:02;6.20;;;5.55;;
64854;SDS011;51321;50.428;8.378;2023-05-07T11:14:52;4.85;;;4.00;;
64854;SDS011;51321;50.428;8.378;2023-05-07T11:17:51;7.00;;;4.18;;
64854;SDS011;51321;50.428;8.378;2023-05-07T11:20:45;6.97;;;5.35;;
64854;SDS011;51321;50.428;8.378;2023-05-07T11:24:00;5.63;;;4.85;;
64854;SDS011;51321;50.428;8.378;2023-05-07T11:26:50;7.25;;;4.50;;
64854;SDS011;51321;50.428;8.378;2023-05-07T11:29:33;6.82;;;5.10;;
64854;SDS011;51321;50.428;8.378;2023-05-07T11:32:22;5.40;;;4.38;;
64854;SDS011;51321;50.428;8.378;2023-05-07T11:35:05;5.13;;;4.63;;
64854;SDS011;51321;50.428;8.378;2023-05-07T11:37:48;4.60;;;4.20;;
64854;SDS011;51321;50.428;8.378;2023-05-07T11:40:30;3.90;;;3.50;;
64854;SDS011;51321;50.428;8.378;2023-05-07T11:43:12;5.00;;;3.60;;
64854;SDS011;51321;50.428;8.378;2023-05-07T11:45:53;8.30;;;3.75;;
64854;SDS011;51321;50.428;8.378;2023-05-07T11:48:34;4.57;;;3.17;;
64854;SDS011;51321;50.428;8.378;2023-05-07T11:51:18;5.28;;;3.90;;
64854;SDS011;51321;50.428;8.378;2023-05-07T11:54:03;4.78;;;3.40;;
64854;SDS011;51321;50.428;8.378;2023-05-07T11:56:47;4.68;;;3.42;;
64854;SDS011;51321;50.428;8.378;2023-05-07T11:59:29;5.33;;;3.47;;
64854;SDS011;51321;50.428;8.378;2023-05-07T12:02:10;5.72;;;3.50;;
64854;SDS011;51321;50.428;8.378;2023-05-07T12:04:52;3.80;;;3.33;;
64854;SDS011;51321;50.428;8.378;2023-05-07T12:07:34;3.92;;;3.13;;
64854;SDS011;51321;50.428;8.378;2023-05-07T12:12:59;4.10;;;3.42;;
64854;SDS011;51321;50.428;8.378;2023-05-07T12:15:40;5.43;;;3.80;;
64854;SDS011;51321;50.428;8.378;2023-05-07T12:18:23;7.10;;;3.47;;
64854;SDS011;51321;50.428;8.378;2023-05-07T12:21:06;5.47;;;4.17;;
64854;SDS011;51321;50.428;8.378;2023-05-07T12:23:47;5.15;;;3.33;;
64854;SDS011;51321;50.428;8.378;2023-05-07T12:26:30;3.25;;;2.70;;
64854;SDS011;51321;50.428;8.378;2023-05-07T12:29:11;3.67;;;2.92;;
64854;SDS011;51321;50.428;8.378;2023-05-07T12:31:53;5.63;;;3.50;;
64854;SDS011;51321;50.428;8.378;2023-05-07T12:34:33;3.53;;;3.15;;
64854;SDS011;51321;50.428;8.378;2023-05-07T12:37:14;2.97;;;2.67;;
64854;SDS011;51321;50.428;8.378;2023-05-07T12:40:05;5.95;;;3.70;;
64854;SDS011;51321;50.428;8.378;2023-05-07T12:42:52;3.88;;;3.05;;
64854;SDS011;51321;50.428;8.378;2023-05-07T12:45:37;2.70;;;2.50;;
64854;SDS011;51321;50.428;8.378;2023-05-07T12:48:19;4.85;;;3.15;;
64854;SDS011;51321;50.428;8.378;2023-05-07T12:51:01;3.88;;;3.10;;
64854;SDS011;51321;50.428;8.378;2023-05-07T12:53:43;2.80;;;2.50;;
64854;SDS011;51321;50.428;8.378;2023-05-07T12:56:24;4.88;;;2.90;;
64854;SDS011;51321;50.428;8.378;2023-05-07T12:59:07;5.93;;;2.63;;
64854;SDS011;51321;50.428;8.378;2023-05-07T13:01:48;3.42;;;2.33;;
64854;SDS011;51321;50.428;8.378;2023-05-07T13:04:29;2.45;;;1.88;;
64854;SDS011;51321;50.428;8.378;2023-05-07T13:07:10;6.72;;;2.30;;
64854;SDS011;51321;50.428;8.378;2023-05-07T13:09:51;3.53;;;2.38;;
64854;SDS011;51321;50.428;8.378;2023-05-07T13:12:32;2.22;;;1.90;;
64854;SDS011;51321;50.428;8.378;2023-05-07T13:15:14;2.90;;;2.20;;
64854;SDS011;51321;50.428;8.378;2023-05-07T13:17:55;2.90;;;2.65;;
64854;SDS011;51321;50.428;8.378;2023-05-07T13:20:36;3.08;;;2.55;;
64854;SDS011;51321;50.428;8.378;2023-05-07T13:23:18;5.45;;;2.53;;
64854;SDS011;51321;50.428;8.378;2023-05-07T13:25:58;2.80;;;2.38;;
64854;SDS011;51321;50.428;8.378;2023-05-07T13:28:40;3.90;;;2.35;;
64854;SDS011;51321;50.428;8.378;2023-05-07T13:31:22;2.45;;;2.25;;
64854;SDS011;51321;50.428;8.378;2023-05-07T13:34:03;2.28;;;2.08;;
64854;SDS011;51321;50.428;8.378;2023-05-07T13:36:44;3.83;;;1.90;;
64854;SDS011;51321;50.428;8.378;2023-05-07T13:39:26;4.40;;;2.40;;
64854;SDS011;51321;50.428;8.378;2023-05-07T13:42:07;3.65;;;2.10;;
64854;SDS011;51321;50.428;8.378;2023-05-07T13:44:47;2.60;;;2.10;;
64854;SDS011;51321;50.428;8.378;2023-05-07T13:47:30;2.60;;;1.85;;
64854;SDS011;51321;50.428;8.378;2023-05-07T13:50:11;2.40;;;1.63;;
64854;SDS011;51321;50.428;8.378;2023-05-07T13:52:53;2.42;;;1.80;;
64854;SDS011;51321;50.428;8.378;2023-05-07T13:58:18;3.15;;;2.30;;
64854;SDS011;51321;50.428;8.378;2023-05-07T14:00:59;2.63;;;2.40;;
64854;SDS011;51321;50.428;8.378;2023-05-07T14:03:42;5.55;;;2.60;;
64854;SDS011;51321;50.428;8.378;2023-05-07T14:06:23;3.92;;;2.55;;
64854;SDS011;51321;50.428;8.378;2023-05-07T14:09:06;5.43;;;2.47;;
64854;SDS011;51321;50.428;8.378;2023-05-07T14:11:47;3.92;;;2.13;;
64854;SDS011;51321;50.428;8.378;2023-05-07T14:17:10;3.72;;;2.67;;
64854;SDS011;51321;50.428;8.378;2023-05-07T14:19:53;3.28;;;2.80;;
64854;SDS011;51321;50.428;8.378;2023-05-07T14:22:34;2.92;;;2.40;;
64854;SDS011;51321;50.428;8.378;2023-05-07T14:25:15;2.78;;;2.47;;
64854;SDS011;51321;50.428;8.378;2023-05-07T14:28:01;3.75;;;3.33;;
64854;SDS011;51321;50.428;8.378;2023-05-07T14:30:43;3.45;;;2.15;;
64854;SDS011;51321;50.428;8.378;2023-05-07T14:33:24;2.30;;;2.08;;
64854;SDS011;51321;50.428;8.378;2023-05-07T14:36:07;4.53;;;3.00;;
64854;SDS011;51321;50.428;8.378;2023-05-07T14:38:48;4.72;;;2.28;;
64854;SDS011;51321;50.428;8.378;2023-05-07T14:41:29;2.45;;;2.20;;
64854;SDS011;51321;50.428;8.378;2023-05-07T14:44:10;2.60;;;2.35;;
64854;SDS011;51321;50.428;8.378;2023-05-07T14:46:51;4.35;;;2.40;;
64854;SDS011;51321;50.428;8.378;2023-05-07T14:49:33;4.78;;;2.40;;
64854;SDS011;51321;50.428;8.378;2023-05-07T14:52:16;2.58;;;2.30;;
64854;SDS011;51321;50.428;8.378;2023-05-07T14:54:57;2.83;;;2.30;;
64854;SDS011;51321;50.428;8.378;2023-05-07T14:57:38;4.82;;;3.13;;
64854;SDS011;51321;50.428;8.378;2023-05-07T15:00:19;5.47;;;2.42;;
64854;SDS011;51321;50.428;8.378;2023-05-07T15:03:04;7.07;;;3.58;;
64854;SDS011;51321;50.428;8.378;2023-05-07T15:05:46;7.45;;;3.30;;
64854;SDS011;51321;50.428;8.378;2023-05-07T15:08:31;3.08;;;2.70;;
64854;SDS011;51321;50.428;8.378;2023-05-07T15:11:11;3.88;;;2.13;;
64854;SDS011;51321;50.428;8.378;2023-05-07T15:13:53;2.33;;;2.13;;
64854;SDS011;51321;50.428;8.378;2023-05-07T15:16:35;6.75;;;2.60;;
64854;SDS011;51321;50.428;8.378;2023-05-07T15:19:15;6.07;;;2.60;;
64854;SDS011;51321;50.428;8.378;2023-05-07T15:21:57;4.80;;;3.03;;
64854;SDS011;51321;50.428;8.378;2023-05-07T15:24:41;4.72;;;3.20;;
64854;SDS011;51321;50.428;8.378;2023-05-07T15:27:22;3.92;;;2.88;;
64854;SDS011;51321;50.428;8.378;2023-05-07T15:30:05;5.63;;;3.35;;
64854;SDS011;51321;50.428;8.378;2023-05-07T15:32:50;3.63;;;3.20;;
64854;SDS011;51321;50.428;8.378;2023-05-07T15:35:32;5.47;;;3.28;;
64854;SDS011;51321;50.428;8.378;2023-05-07T15:38:13;5.20;;;2.85;;
64854;SDS011;51321;50.428;8.378;2023-05-07T15:40:55;5.63;;;3.95;;
64854;SDS011;51321;50.428;8.378;2023-05-07T15:43:38;4.30;;;3.90;;
64854;SDS011;51321;50.428;8.378;2023-05-07T15:46:24;7.55;;;4.20;;
64854;SDS011;51321;50.428;8.378;2023-05-07T15:49:05;7.82;;;6.93;;
64854;SDS011;51321;50.428;8.378;2023-05-07T15:51:47;6.20;;;5.47;;
64854;SDS011;51321;50.428;8.378;2023-05-07T15:54:29;6.15;;;4.00;;
64854;SDS011;51321;50.428;8.378;2023-05-07T15:57:12;2.80;;;2.38;;
64854;SDS011;51321;50.428;8.378;2023-05-07T15:59:53;3.05;;;2.47;;
64854;SDS011;51321;50.428;8.378;2023-05-07T16:02:34;2.78;;;2.10;;
64854;SDS011;51321;50.428;8.378;2023-05-07T16:05:15;3.80;;;2.07;;
64854;SDS011;51321;50.428;8.378;2023-05-07T16:07:57;3.78;;;2.40;;
64854;SDS011;51321;50.428;8.378;2023-05-07T16:10:39;4.28;;;2.17;;
64854;SDS011;51321;50.428;8.378;2023-05-07T16:13:21;4.00;;;2.17;;
64854;SDS011;51321;50.428;8.378;2023-05-07T16:16:03;3.22;;;2.50;;
64854;SDS011;51321;50.428;8.378;2023-05-07T16:18:46;2.80;;;1.67;;
64854;SDS011;51321;50.428;8.378;2023-05-07T16:21:27;2.20;;;2.00;;
64854;SDS011;51321;50.428;8.378;2023-05-07T16:24:08;2.47;;;1.52;;
64854;SDS011;51321;50.428;8.378;2023-05-07T16:26:49;1.70;;;1.60;;
64854;SDS011;51321;50.428;8.378;2023-05-07T16:29:33;1.92;;;1.50;;
64854;SDS011;51321;50.428;8.378;2023-05-07T16:32:13;4.05;;;2.03;;
64854;SDS011;51321;50.428;8.378;2023-05-07T16:34:54;2.55;;;1.55;;
64854;SDS011;51321;50.428;8.378;2023-05-07T16:37:36;2.88;;;1.85;;
64854;SDS011;51321;50.428;8.378;2023-05-07T16:40:20;3.30;;;2.10;;
64854;SDS011;51321;50.428;8.378;2023-05-07T16:43:01;3.50;;;2.60;;
64854;SDS011;51321;50.428;8.378;2023-05-07T16:45:44;3.25;;;2.67;;
64854;SDS011;51321;50.428;8.378;2023-05-07T16:48:26;3.92;;;2.60;;
64854;SDS011;51321;50.428;8.378;2023-05-07T16:51:07;5.68;;;3.00;;
64854;SDS011;51321;50.428;8.378;2023-05-07T16:53:48;3.38;;;3.05;;
64854;SDS011;51321;50.428;8.378;2023-05-07T16:56:30;5.10;;;3.25;;
64854;SDS011;51321;50.428;8.378;2023-05-07T16:59:10;6.35;;;3.25;;
64854;SDS011;51321;50.428;8.378;2023-05-07T17:01:52;4.93;;;3.45;;
64854;SDS011;51321;50.428;8.378;2023-05-07T17:04:33;4.10;;;3.75;;
64854;SDS011;51321;50.428;8.378;2023-05-07T17:07:14;4.63;;;3.30;;
64854;SDS011;51321;50.428;8.378;2023-05-07T17:09:57;4.18;;;3.75;;
64854;SDS011;51321;50.428;8.378;2023-05-07T17:12:38;4.90;;;3.30;;
64854;SDS011;51321;50.428;8.378;2023-05-07T17:15:19;4.68;;;3.70;;
64854;SDS011;51321;50.428;8.378;2023-05-07T17:18:01;5.85;;;4.13;;
64854;SDS011;51321;50.428;8.378;2023-05-07T17:20:42;4.50;;;4.10;;
64854;SDS011;51321;50.428;8.378;2023-05-07T17:23:23;4.32;;;3.85;;
64854;SDS011;51321;50.428;8.378;2023-05-07T17:26:10;5.22;;;3.90;;
64854;SDS011;51321;50.428;8.378;2023-05-07T17:28:51;4.40;;;4.00;;
64854;SDS011;51321;50.428;8.378;2023-05-07T17:31:33;4.65;;;3.72;;
64854;SDS011;51321;50.428;8.378;2023-05-07T17:34:16;7.63;;;4.28;;
64854;SDS011;51321;50.428;8.378;2023-05-07T17:36:56;4.60;;;4.13;;
64854;SDS011;51321;50.428;8.378;2023-05-07T17:39:37;7.10;;;4.40;;
64854;SDS011;51321;50.428;8.378;2023-05-07T17:42:18;4.40;;;3.88;;
64854;SDS011;51321;50.428;8.378;2023-05-07T17:44:59;4.72;;;3.88;;
64854;SDS011;51321;50.428;8.378;2023-05-07T17:47:40;4.72;;;4.05;;
64854;SDS011;51321;50.428;8.378;2023-05-07T17:50:23;4.70;;;4.20;;
64854;SDS011;51321;50.428;8.378;2023-05-07T17:53:04;6.50;;;3.92;;
64854;SDS011;51321;50.428;8.378;2023-05-07T17:55:47;4.38;;;3.97;;
64854;SDS011;51321;50.428;8.378;2023-05-07T17:58:29;4.50;;;4.03;;
64854;SDS011;51321;50.428;8.378;2023-05-07T18:01:10;5.13;;;3.95;;
64854;SDS011;51321;50.428;8.378;2023-05-07T18:03:51;7.30;;;3.72;;
64854;SDS011;51321;50.428;8.378;2023-05-07T18:06:33;4.10;;;3.70;;
64854;SDS011;51321;50.428;8.378;2023-05-07T18:09:14;4.70;;;3.83;;
64854;SDS011;51321;50.428;8.378;2023-05-07T18:11:55;4.40;;;3.07;;
64854;SDS011;51321;50.428;8.378;2023-05-07T18:14:36;3.75;;;3.40;;
64854;SDS011;51321;50.428;8.378;2023-05-07T18:17:17;4.55;;;3.28;;
64854;SDS011;51321;50.428;8.378;2023-05-07T18:20:01;7.07;;;3.92;;
64854;SDS011;51321;50.428;8.378;2023-05-07T18:22:45;5.80;;;3.47;;
64854;SDS011;51321;50.428;8.378;2023-05-07T18:25:25;4.13;;;3.67;;
64854;SDS011;51321;50.428;8.378;2023-05-07T18:28:06;5.97;;;4.13;;
64854;SDS011;51321;50.428;8.378;2023-05-07T18:30:47;4.35;;;3.88;;
64854;SDS011;51321;50.428;8.378;2023-05-07T18:33:28;5.68;;;4.20;;
64854;SDS011;51321;50.428;8.378;2023-05-07T18:36:09;5.32;;;4.60;;
64854;SDS011;51321;50.428;8.378;2023-05-07T18:38:51;5.30;;;3.70;;
64854;SDS011;51321;50.428;8.378;2023-05-07T18:41:34;4.30;;;3.90;;
64854;SDS011;51321;50.428;8.378;2023-05-07T18:44:15;3.75;;;3.35;;
64854;SDS011;51321;50.428;8.378;2023-05-07T18:46:56;3.33;;;2.80;;
64854;SDS011;51321;50.428;8.378;2023-05-07T18:49:37;4.72;;;2.53;;
64854;SDS011;51321;50.428;8.378;2023-05-07T18:52:18;3.55;;;2.28;;
64854;SDS011;51321;50.428;8.378;2023-05-07T18:55:01;3.65;;;1.75;;
64854;SDS011;51321;50.428;8.378;2023-05-07T18:57:43;3.78;;;2.50;;
64854;SDS011;51321;50.428;8.378;2023-05-07T19:00:26;3.70;;;2.15;;
64854;SDS011;51321;50.428;8.378;2023-05-07T19:03:08;2.65;;;2.10;;
64854;SDS011;51321;50.428;8.378;2023-05-07T19:05:49;3.25;;;2.00;;
64854;SDS011;51321;50.428;8.378;2023-05-07T19:08:30;3.22;;;1.90;;
64854;SDS011;51321;50.428;8.378;2023-05-07T19:11:14;3.50;;;2.60;;
64854;SDS011;51321;50.428;8.378;2023-05-07T19:16:35;2.47;;;2.00;;
64854;SDS011;51321;50.428;8.378;2023-05-07T19:19:16;4.47;;;1.83;;
64854;SDS011;51321;50.428;8.378;2023-05-07T19:21:57;5.00;;;2.47;;
64854;SDS011;51321;50.428;8.378;2023-05-07T19:24:38;4.38;;;2.10;;
64854;SDS011;51321;50.428;8.378;2023-05-07T19:27:22;3.30;;;2.33;;
64854;SDS011;51321;50.428;8.378;2023-05-07T19:30:03;4.75;;;2.50;;
64854;SDS011;51321;50.428;8.378;2023-05-07T19:32:45;4.35;;;2.53;;
64854;SDS011;51321;50.428;8.378;2023-05-07T19:35:26;4.78;;;2.58;;
64854;SDS011;51321;50.428;8.378;2023-05-07T19:38:09;8.77;;;3.78;;
64854;SDS011;51321;50.428;8.378;2023-05-07T19:40:49;8.32;;;4.22;;
64854;SDS011;51321;50.428;8.378;2023-05-07T19:43:33;5.85;;;3.20;;
64854;SDS011;51321;50.428;8.378;2023-05-07T19:46:16;5.32;;;2.63;;
64854;SDS011;51321;50.428;8.378;2023-05-07T19:48:56;7.93;;;2.50;;
64854;SDS011;51321;50.428;8.378;2023-05-07T19:51:37;5.05;;;2.03;;
64854;SDS011;51321;50.428;8.378;2023-05-07T19:54:18;8.95;;;2.28;;
64854;SDS011;51321;50.428;8.378;2023-05-07T19:56:59;5.65;;;2.65;;
64854;SDS011;51321;50.428;8.378;2023-05-07T19:59:41;6.90;;;2.70;;
64854;SDS011;51321;50.428;8.378;2023-05-07T20:02:22;3.05;;;2.33;;
64854;SDS011;51321;50.428;8.378;2023-05-07T20:05:03;3.90;;;2.40;;
64854;SDS011;51321;50.428;8.378;2023-05-07T20:07:45;4.68;;;2.20;;
64854;SDS011;51321;50.428;8.378;2023-05-07T20:10:26;7.25;;;2.40;;
64854;SDS011;51321;50.428;8.378;2023-05-07T20:13:06;3.60;;;2.20;;
64854;SDS011;51321;50.428;8.378;2023-05-07T20:15:49;7.55;;;2.55;;
64854;SDS011;51321;50.428;8.378;2023-05-07T20:18:30;4.80;;;1.95;;
64854;SDS011;51321;50.428;8.378;2023-05-07T20:21:11;7.18;;;3.03;;
64854;SDS011;51321;50.428;8.378;2023-05-07T20:23:52;6.28;;;2.85;;
64854;SDS011;51321;50.428;8.378;2023-05-07T20:26:33;5.05;;;2.75;;
64854;SDS011;51321;50.428;8.378;2023-05-07T20:29:14;3.65;;;2.70;;
64854;SDS011;51321;50.428;8.378;2023-05-07T20:31:57;8.35;;;3.28;;
64854;SDS011;51321;50.428;8.378;2023-05-07T20:34:38;7.70;;;4.40;;
64854;SDS011;51321;50.428;8.378;2023-05-07T20:37:18;8.45;;;4.47;;
64854;SDS011;51321;50.428;8.378;2023-05-07T20:40:00;8.48;;;5.15;;
64854;SDS011;51321;50.428;8.378;2023-05-07T20:42:42;8.40;;;5.78;;
64854;SDS011;51321;50.428;8.378;2023-05-07T20:45:24;9.13;;;6.05;;
64854;SDS011;51321;50.428;8.378;2023-05-07T20:48:07;8.75;;;6.68;;
64854;SDS011;51321;50.428;8.378;2023-05-07T20:53:29;7.40;;;6.70;;
64854;SDS011;51321;50.428;8.378;2023-05-07T20:56:10;10.80;;;6.82;;
64854;SDS011;51321;50.428;8.378;2023-05-07T20:58:51;10.60;;;6.90;;
64854;SDS011;51321;50.428;8.378;2023-05-07T21:01:33;10.27;;;7.68;;
64854;SDS011;51321;50.428;8.378;2023-05-07T21:04:15;8.70;;;7.07;;
64854;SDS011;51321;50.428;8.378;2023-05-07T21:06:56;11.93;;;7.45;;
64854;SDS011;51321;50.428;8.378;2023-05-07T21:09:39;8.45;;;7.55;;
64854;SDS011;51321;50.428;8.378;2023-05-07T21:12:20;8.93;;;7.80;;
64854;SDS011;51321;50.428;8.378;2023-05-07T21:15:01;9.65;;;7.90;;
64854;SDS011;51321;50.428;8.378;2023-05-07T21:17:42;9.00;;;7.28;;
64854;SDS011;51321;50.428;8.378;2023-05-07T21:20:24;9.57;;;8.07;;
64854;SDS011;51321;50.428;8.378;2023-05-07T21:23:05;7.57;;;6.80;;
64854;SDS011;51321;50.428;8.378;2023-05-07T21:25:48;25.52;;;8.55;;
64854;SDS011;51321;50.428;8.378;2023-05-07T21:28:29;8.85;;;7.95;;
64854;SDS011;51321;50.428;8.378;2023-05-07T21:31:10;10.20;;;8.05;;
64854;SDS011;51321;50.428;8.378;2023-05-07T21:33:51;8.73;;;7.07;;
64854;SDS011;51321;50.428;8.378;2023-05-07T21:39:16;8.95;;;7.43;;
64854;SDS011;51321;50.428;8.378;2023-05-07T21:41:57;9.02;;;7.45;;
64854;SDS011;51321;50.428;8.378;2023-05-07T21:44:38;9.20;;;7.45;;
64854;SDS011;51321;50.428;8.378;2023-05-07T21:47:19;9.43;;;7.00;;
64854;SDS011;51321;50.428;8.378;2023-05-07T21:50:00;9.40;;;7.43;;
64854;SDS011;51321;50.428;8.378;2023-05-07T21:52:42;9.43;;;7.82;;
64854;SDS011;51321;50.428;8.378;2023-05-07T21:55:24;9.40;;;7.45;;
64854;SDS011;51321;50.428;8.378;2023-05-07T21:58:05;9.02;;;8.15;;
64854;SDS011;51321;50.428;8.378;2023-05-07T22:00:46;9.68;;;7.03;;
64854;SDS011;51321;50.428;8.378;2023-05-07T22:03:28;9.10;;;7.65;;
64854;SDS011;51321;50.428;8.378;2023-05-07T22:06:09;8.90;;;7.97;;
64854;SDS011;51321;50.428;8.378;2023-05-07T22:08:52;11.85;;;7.72;;
64854;SDS011;51321;50.428;8.378;2023-05-07T22:11:33;10.73;;;6.93;;
64854;SDS011;51321;50.428;8.378;2023-05-07T22:14:14;8.00;;;6.72;;
64854;SDS011;51321;50.428;8.378;2023-05-07T22:16:54;8.40;;;7.60;;
64854;SDS011;51321;50.428;8.378;2023-05-07T22:19:35;11.23;;;7.97;;
64854;SDS011;51321;50.428;8.378;2023-05-07T22:22:16;9.25;;;7.68;;
64854;SDS011;51321;50.428;8.378;2023-05-07T22:24:59;8.48;;;7.68;;
64854;SDS011;51321;50.428;8.378;2023-05-07T22:27:40;7.18;;;6.50;;
64854;SDS011;51321;50.428;8.378;2023-05-07T22:30:22;7.28;;;6.57;;
64854;SDS011;51321;50.428;8.378;2023-05-07T22:33:06;9.77;;;6.75;;
64854;SDS011;51321;50.428;8.378;2023-05-07T22:35:47;10.00;;;7.27;;
64854;SDS011;51321;50.428;8.378;2023-05-07T22:38:28;7.65;;;6.80;;
64854;SDS011;51321;50.428;8.378;2023-05-07T22:41:10;7.63;;;6.93;;
64854;SDS011;51321;50.428;8.378;2023-05-07T22:43:52;8.30;;;7.43;;
64854;SDS011;51321;50.428;8.378;2023-05-07T22:46:33;8.45;;;7.65;;
64854;SDS011;51321;50.428;8.378;2023-05-07T22:49:13;7.88;;;7.10;;
64854;SDS011;51321;50.428;8.378;2023-05-07T22:52:16;8.77;;;7.75;;
64854;SDS011;51321;50.428;8.378;2023-05-07T22:54:57;9.23;;;6.82;;
64854;SDS011;51321;50.428;8.378;2023-05-07T22:57:43;11.88;;;7.82;;
64854;SDS011;51321;50.428;8.378;2023-05-07T23:00:24;7.65;;;6.95;;
64854;SDS011;51321;50.428;8.378;2023-05-07T23:03:19;7.97;;;7.18;;
64854;SDS011;51321;50.428;8.378;2023-05-07T23:06:00;8.15;;;7.35;;
64854;SDS011;51321;50.428;8.378;2023-05-07T23:08:43;7.75;;;6.43;;
64854;SDS011;51321;50.428;8.378;2023-05-07T23:11:23;7.20;;;6.18;;
64854;SDS011;51321;50.428;8.378;2023-05-07T23:14:07;7.85;;;6.70;;
64854;SDS011;51321;50.428;8.378;2023-05-07T23:16:48;8.50;;;7.70;;
64854;SDS011;51321;50.428;8.378;2023-05-07T23:19:29;8.48;;;7.38;;
64854;SDS011;51321;50.428;8.378;2023-05-07T23:22:10;7.13;;;6.53;;
64854;SDS011;51321;50.428;8.378;2023-05-07T23:24:51;6.82;;;6.22;;
64854;SDS011;51321;50.428;8.378;2023-05-07T23:27:31;7.47;;;6.78;;
64854;SDS011;51321;50.428;8.378;2023-05-07T23:30:14;7.07;;;6.47;;
64854;SDS011;51321;50.428;8.378;2023-05-07T23:35:36;7.93;;;7.13;;
64854;SDS011;51321;50.428;8.378;2023-05-07T23:38:17;8.63;;;7.13;;
64854;SDS011;51321;50.428;8.378;2023-05-07T23:40:58;8.90;;;6.30;;
64854;SDS011;51321;50.428;8.378;2023-05-07T23:43:39;8.45;;;7.28;;
64854;SDS011;51321;50.428;8.378;2023-05-07T23:46:22;6.90;;;6.30;;
64854;SDS011;51321;50.428;8.378;2023-05-07T23:49:04;6.72;;;5.97;;
64854;SDS011;51321;50.428;8.378;2023-05-07T23:51:45;7.38;;;6.63;;
64854;SDS011;51321;50.428;8.378;2023-05-07T23:54:26;10.23;;;7.20;;
64854;SDS011;51321;50.428;8.378;2023-05-07T23:57:08;8.30;;;6.55;;
64854;SDS011;51321;50.428;8.378;2023-05-07T23:59:49;7.22;;;6.57;;
